Terminal Aerodrome Forecast
Issued by NWS Northern Indiana

Home | Current Version | Previous Version | Text Only | Print | Product List | Glossary On
Versions: 1 2 3 4 5 6 7 8 9 10 11 12 13 14 15
000
FTUS43 KIWX 240500
TAFFWA
TAF
KFWA 240531Z 2406/2506 02005KT P6SM SCT020 BKN040
      TEMPO 2408/2412 BKN020
     FM241400 03008KT P6SM SCT050
     FM250000 VRB02KT P6SM SCT250=

USA.gov is the U.S. government's official web portal to all federal, state and local government web resources and services.